Deer Island, Oregon
Current Conditions -  °F | °C
As of 7:53 PM on Saturday 22 Nov 2014 (Local Time) from KSPB Reporting Station
Light Rain Light Rain  
Wind Chill: 41°   Ceiling: 6500
Heat Index: 41°   Visibility: 10mi
Dew Point: 39°   Wind: 3mph
Humidity: 93%   Direction: 40°NE
Pressure: 30.15"   Gusts: NA
Location:  45.93°N, 122.84°W
Report Text: KSPB 230353Z AUTO 04003KT 10SM -RA SCT050 OVC065 05/04 A3015 RMK AO2 RAB46 SLP209 P0000 T00500039
Loading
Personal Weather Stations






























Interactive Weather Map New forecast layout! Learn more

10-Day Weather Forecast

Advertisements
Track Severe Weather on mobile